sensor_id;sensor_type;location;lat;lon;timestamp;pressure;altitude;pressure_sealevel;temperature;humidity
34983;BME280;21187;50.976;13.720;2023-04-29T00:03:55;97712.66;;;13.78;53.02
34983;BME280;21187;50.976;13.720;2023-04-29T00:08:57;97715.69;;;13.62;53.94
34983;BME280;21187;50.976;13.720;2023-04-29T00:13:59;97712.59;;;13.63;53.57
34983;BME280;21187;50.976;13.720;2023-04-29T00:19:01;97716.50;;;13.73;53.44
34983;BME280;21187;50.976;13.720;2023-04-29T00:24:04;97698.66;;;13.79;53.24
34983;BME280;21187;50.976;13.720;2023-04-29T00:29:06;97698.69;;;13.87;53.33
34983;BME280;21187;50.976;13.720;2023-04-29T00:34:07;97697.91;;;13.93;53.07
34983;BME280;21187;50.976;13.720;2023-04-29T00:39:09;97697.94;;;13.97;53.31
34983;BME280;21187;50.976;13.720;2023-04-29T00:44:14;97690.97;;;14.03;53.47
34983;BME280;21187;50.976;13.720;2023-04-29T00:49:16;97690.97;;;14.03;53.42
34983;BME280;21187;50.976;13.720;2023-04-29T00:54:18;97692.53;;;14.04;53.76
34983;BME280;21187;50.976;13.720;2023-04-29T00:59:21;97701.13;;;14.13;54.36
34983;BME280;21187;50.976;13.720;2023-04-29T01:04:23;97694.91;;;14.20;54.52
34983;BME280;21187;50.976;13.720;2023-04-29T01:09:34;97677.00;;;14.30;54.76
34983;BME280;21187;50.976;13.720;2023-04-29T01:14:42;97670.41;;;14.38;54.82
34983;BME280;21187;50.976;13.720;2023-04-29T01:19:54;97671.59;;;14.44;55.21
34983;BME280;21187;50.976;13.720;2023-04-29T01:24:58;97687.16;;;14.47;55.41
34983;BME280;21187;50.976;13.720;2023-04-29T01:30:21;97687.97;;;14.52;55.44
34983;BME280;21187;50.976;13.720;2023-04-29T01:35:59;97700.41;;;14.53;55.49
34983;BME280;21187;50.976;13.720;2023-04-29T01:41:13;97703.50;;;14.40;57.17
34983;BME280;21187;50.976;13.720;2023-04-29T01:46:19;97705.41;;;14.29;57.80
34983;BME280;21187;50.976;13.720;2023-04-29T01:51:23;97706.59;;;14.28;57.63
34983;BME280;21187;50.976;13.720;2023-04-29T01:56:25;97706.94;;;14.15;58.34
34983;BME280;21187;50.976;13.720;2023-04-29T02:01:39;97728.34;;;14.17;58.72
34983;BME280;21187;50.976;13.720;2023-04-29T02:06:41;97731.44;;;14.15;58.81
34983;BME280;21187;50.976;13.720;2023-04-29T02:11:43;97739.25;;;14.13;59.54
34983;BME280;21187;50.976;13.720;2023-04-29T02:16:46;97739.19;;;14.06;60.27
34983;BME280;21187;50.976;13.720;2023-04-29T02:21:48;97748.88;;;14.00;61.16
34983;BME280;21187;50.976;13.720;2023-04-29T02:26:51;97743.84;;;13.95;61.04
34983;BME280;21187;50.976;13.720;2023-04-29T02:31:54;97750.44;;;13.94;61.23
34983;BME280;21187;50.976;13.720;2023-04-29T02:36:56;97722.06;;;13.95;60.96
34983;BME280;21187;50.976;13.720;2023-04-29T02:41:58;97720.47;;;13.90;61.33
34983;BME280;21187;50.976;13.720;2023-04-29T02:47:00;97732.09;;;13.84;62.18
34983;BME280;21187;50.976;13.720;2023-04-29T02:52:03;97726.66;;;13.84;61.89
34983;BME280;21187;50.976;13.720;2023-04-29T02:57:07;97714.63;;;13.92;61.70
34983;BME280;21187;50.976;13.720;2023-04-29T03:02:09;97718.16;;;13.96;61.56
34983;BME280;21187;50.976;13.720;2023-04-29T03:07:11;97706.50;;;13.99;61.26
34983;BME280;21187;50.976;13.720;2023-04-29T03:12:13;97710.03;;;14.03;60.83
34983;BME280;21187;50.976;13.720;2023-04-29T03:17:19;97709.66;;;14.08;60.46
34983;BME280;21187;50.976;13.720;2023-04-29T03:22:21;97705.00;;;14.20;60.11
34983;BME280;21187;50.976;13.720;2023-04-29T03:27:23;97711.28;;;14.31;59.36
34983;BME280;21187;50.976;13.720;2023-04-29T03:32:25;97708.91;;;14.26;59.75
34983;BME280;21187;50.976;13.720;2023-04-29T03:37:27;97701.13;;;14.24;59.36
34983;BME280;21187;50.976;13.720;2023-04-29T03:42:42;97703.84;;;14.21;59.55
34983;BME280;21187;50.976;13.720;2023-04-29T03:47:43;97698.41;;;14.21;59.70
34983;BME280;21187;50.976;13.720;2023-04-29T03:52:46;97691.38;;;14.20;59.85
34983;BME280;21187;50.976;13.720;2023-04-29T03:57:50;97691.78;;;14.29;59.55
34983;BME280;21187;50.976;13.720;2023-04-29T04:02:53;97697.28;;;14.36;59.58
34983;BME280;21187;50.976;13.720;2023-04-29T04:07:55;97701.94;;;14.43;59.05
34983;BME280;21187;50.976;13.720;2023-04-29T04:13:09;97694.16;;;14.41;59.44
34983;BME280;21187;50.976;13.720;2023-04-29T04:18:11;97691.81;;;14.36;59.38
34983;BME280;21187;50.976;13.720;2023-04-29T04:23:13;97694.94;;;14.38;59.52
34983;BME280;21187;50.976;13.720;2023-04-29T04:28:17;97705.84;;;14.42;59.62
34983;BME280;21187;50.976;13.720;2023-04-29T04:33:33;97704.28;;;14.44;60.33
34983;BME280;21187;50.976;13.720;2023-04-29T04:38:36;97704.28;;;14.44;60.43
34983;BME280;21187;50.976;13.720;2023-04-29T04:43:42;97707.41;;;14.46;60.87
34983;BME280;21187;50.976;13.720;2023-04-29T04:48:53;97708.94;;;14.47;60.84
34983;BME280;21187;50.976;13.720;2023-04-29T04:53:56;97709.75;;;14.52;60.79
34983;BME280;21187;50.976;13.720;2023-04-29T04:58:59;97709.75;;;14.52;60.75
34983;BME280;21187;50.976;13.720;2023-04-29T05:04:01;97707.44;;;14.57;60.63
34983;BME280;21187;50.976;13.720;2023-04-29T05:09:04;97723.81;;;14.68;60.27
34983;BME280;21187;50.976;13.720;2023-04-29T05:14:08;97723.81;;;14.75;60.42
34983;BME280;21187;50.976;13.720;2023-04-29T05:19:10;97719.53;;;14.74;60.57
34983;BME280;21187;50.976;13.720;2023-04-29T05:24:13;97728.47;;;14.71;61.10
34983;BME280;21187;50.976;13.720;2023-04-29T05:29:16;97734.72;;;14.68;61.59
34983;BME280;21187;50.976;13.720;2023-04-29T05:34:25;97738.63;;;14.74;61.11
34983;BME280;21187;50.976;13.720;2023-04-29T05:39:27;97740.16;;;14.90;61.19
34983;BME280;21187;50.976;13.720;2023-04-29T05:44:41;97744.09;;;15.03;61.56
34983;BME280;21187;50.976;13.720;2023-04-29T05:49:43;97745.66;;;15.11;62.13
34983;BME280;21187;50.976;13.720;2023-04-29T05:54:45;97749.53;;;15.18;61.90
34983;BME280;21187;50.976;13.720;2023-04-29T05:59:47;97761.22;;;15.22;61.51
34983;BME280;21187;50.976;13.720;2023-04-29T06:04:49;97752.66;;;15.20;62.06
34983;BME280;21187;50.976;13.720;2023-04-29T06:10:11;97759.66;;;15.21;62.42
34983;BME280;21187;50.976;13.720;2023-04-29T06:15:16;97766.28;;;15.27;62.23
34983;BME280;21187;50.976;13.720;2023-04-29T06:20:19;97772.91;;;15.33;62.17
34983;BME280;21187;50.976;13.720;2023-04-29T06:25:21;97767.44;;;15.40;61.96
34983;BME280;21187;50.976;13.720;2023-04-29T06:30:25;97763.13;;;15.46;61.65
34983;BME280;21187;50.976;13.720;2023-04-29T06:35:28;97767.03;;;15.53;61.65
34983;BME280;21187;50.976;13.720;2023-04-29T06:40:42;97781.44;;;15.53;61.33
34983;BME280;21187;50.976;13.720;2023-04-29T06:46:04;97783.00;;;15.58;61.46
34983;BME280;21187;50.976;13.720;2023-04-29T06:51:12;97779.13;;;15.59;61.53
34983;BME280;21187;50.976;13.720;2023-04-29T06:56:14;97793.16;;;15.54;61.42
34983;BME280;21187;50.976;13.720;2023-04-29T07:01:17;97790.03;;;15.52;61.64
34983;BME280;21187;50.976;13.720;2023-04-29T07:06:19;97790.44;;;15.43;61.53
34983;BME280;21187;50.976;13.720;2023-04-29T07:11:21;97794.72;;;15.37;61.82
34983;BME280;21187;50.976;13.720;2023-04-29T07:16:25;97804.88;;;15.36;61.72
34983;BME280;21187;50.976;13.720;2023-04-29T07:21:28;97801.34;;;15.32;61.89
34983;BME280;21187;50.976;13.720;2023-04-29T07:26:31;97804.88;;;15.36;62.03
34983;BME280;21187;50.976;13.720;2023-04-29T07:31:33;97807.19;;;15.41;61.83
34983;BME280;21187;50.976;13.720;2023-04-29T07:36:38;97814.22;;;15.42;61.65
34983;BME280;21187;50.976;13.720;2023-04-29T07:41:40;97819.69;;;15.35;62.08
34983;BME280;21187;50.976;13.720;2023-04-29T07:46:43;97823.56;;;15.34;62.29
34983;BME280;21187;50.976;13.720;2023-04-29T07:51:45;97824.75;;;15.40;62.21
34983;BME280;21187;50.976;13.720;2023-04-29T07:56:47;97834.47;;;15.48;61.93
34983;BME280;21187;50.976;13.720;2023-04-29T08:01:49;97833.69;;;15.52;61.92
34983;BME280;21187;50.976;13.720;2023-04-29T08:06:51;97843.06;;;15.58;61.52
34983;BME280;21187;50.976;13.720;2023-04-29T08:11:53;97856.31;;;15.63;61.57
34983;BME280;21187;50.976;13.720;2023-04-29T08:16:55;97848.88;;;15.63;61.54
34983;BME280;21187;50.976;13.720;2023-04-29T08:21:56;97856.31;;;15.59;61.30
34983;BME280;21187;50.976;13.720;2023-04-29T08:26:58;97864.91;;;15.61;61.44
34983;BME280;21187;50.976;13.720;2023-04-29T08:32:00;97867.63;;;15.72;61.18
34983;BME280;21187;50.976;13.720;2023-04-29T08:37:02;97868.78;;;15.82;61.18
34983;BME280;21187;50.976;13.720;2023-04-29T08:42:09;97872.66;;;15.95;61.11
34983;BME280;21187;50.976;13.720;2023-04-29T08:47:11;97871.91;;;15.95;61.42
34983;BME280;21187;50.976;13.720;2023-04-29T08:52:14;97883.59;;;16.03;61.29
34983;BME280;21187;50.976;13.720;2023-04-29T08:57:16;97885.94;;;16.11;61.29
34983;BME280;21187;50.976;13.720;2023-04-29T09:02:19;97892.94;;;16.20;60.90
34983;BME280;21187;50.976;13.720;2023-04-29T09:07:22;97882.28;;;16.51;61.07
34983;BME280;21187;50.976;13.720;2023-04-29T09:12:24;97884.09;;;16.86;60.04
34983;BME280;21187;50.976;13.720;2023-04-29T09:17:39;97890.25;;;17.08;59.27
34983;BME280;21187;50.976;13.720;2023-04-29T09:22:48;97900.78;;;17.06;58.79
34983;BME280;21187;50.976;13.720;2023-04-29T09:27:49;97920.09;;;16.70;58.37
34983;BME280;21187;50.976;13.720;2023-04-29T09:33:04;97920.63;;;16.25;58.41
34983;BME280;21187;50.976;13.720;2023-04-29T09:38:08;97918.72;;;15.86;58.76
34983;BME280;21187;50.976;13.720;2023-04-29T09:43:13;97930.38;;;15.65;58.84
34983;BME280;21187;50.976;13.720;2023-04-29T09:48:15;97936.63;;;15.40;59.52
34983;BME280;21187;50.976;13.720;2023-04-29T09:53:28;97933.47;;;15.17;59.88
34983;BME280;21187;50.976;13.720;2023-04-29T09:58:32;97949.41;;;15.11;60.16
34983;BME280;21187;50.976;13.720;2023-04-29T10:03:41;97956.03;;;15.06;59.91
34983;BME280;21187;50.976;13.720;2023-04-29T10:08:44;97956.75;;;14.89;60.32
34983;BME280;21187;50.976;13.720;2023-04-29T10:13:50;97948.13;;;14.76;60.87
34983;BME280;21187;50.976;13.720;2023-04-29T10:18:54;97955.91;;;14.77;60.92
34983;BME280;21187;50.976;13.720;2023-04-29T10:23:58;97963.69;;;14.79;61.66
34983;BME280;21187;50.976;13.720;2023-04-29T10:29:00;97973.03;;;14.78;61.90
34983;BME280;21187;50.976;13.720;2023-04-29T10:34:03;97966.84;;;14.88;62.07
34983;BME280;21187;50.976;13.720;2023-04-29T10:39:11;97963.78;;;15.04;61.98
34983;BME280;21187;50.976;13.720;2023-04-29T10:44:14;97979.06;;;15.20;61.85
34983;BME280;21187;50.976;13.720;2023-04-29T10:49:16;97980.22;;;15.29;61.95
34983;BME280;21187;50.976;13.720;2023-04-29T10:54:18;97972.88;;;15.34;61.45
34983;BME280;21187;50.976;13.720;2023-04-29T11:04:34;97989.25;;;15.52;61.07
34983;BME280;21187;50.976;13.720;2023-04-29T11:09:36;97989.28;;;15.59;60.70
34983;BME280;21187;50.976;13.720;2023-04-29T11:19:49;97989.66;;;15.54;60.65
34983;BME280;21187;50.976;13.720;2023-04-29T11:25:09;97999.81;;;15.68;60.31
34983;BME280;21187;50.976;13.720;2023-04-29T11:30:12;97995.94;;;15.76;59.53
34983;BME280;21187;50.976;13.720;2023-04-29T11:35:16;97991.28;;;15.84;58.68
34983;BME280;21187;50.976;13.720;2023-04-29T11:40:18;98004.53;;;15.82;57.76
34983;BME280;21187;50.976;13.720;2023-04-29T11:45:20;98010.78;;;15.82;57.57
34983;BME280;21187;50.976;13.720;2023-04-29T11:50:22;98010.75;;;15.78;57.11
34983;BME280;21187;50.976;13.720;2023-04-29T11:55:24;98023.22;;;15.69;56.72
34983;BME280;21187;50.976;13.720;2023-04-29T12:00:27;98024.78;;;15.66;56.49
34983;BME280;21187;50.976;13.720;2023-04-29T12:05:29;98035.69;;;15.66;56.50
34983;BME280;21187;50.976;13.720;2023-04-29T12:10:31;98030.22;;;15.66;56.66
34983;BME280;21187;50.976;13.720;2023-04-29T12:15:33;98024.78;;;15.73;56.53
34983;BME280;21187;50.976;13.720;2023-04-29T12:20:36;98029.47;;;15.76;55.97
34983;BME280;21187;50.976;13.720;2023-04-29T12:25:40;98054.03;;;15.69;55.65
34983;BME280;21187;50.976;13.720;2023-04-29T12:30:46;98056.72;;;15.55;55.82
34983;BME280;21187;50.976;13.720;2023-04-29T12:35:49;98057.53;;;15.59;55.82
34983;BME280;21187;50.976;13.720;2023-04-29T12:40:52;98066.09;;;15.54;56.16
34983;BME280;21187;50.976;13.720;2023-04-29T12:51:03;98087.91;;;15.54;55.52
34983;BME280;21187;50.976;13.720;2023-04-29T12:56:06;98087.81;;;15.28;55.87
34983;BME280;21187;50.976;13.720;2023-04-29T13:01:08;98094.06;;;15.29;55.78
34983;BME280;21187;50.976;13.720;2023-04-29T13:06:10;98102.22;;;15.22;55.69
34983;BME280;21187;50.976;13.720;2023-04-29T13:11:13;98110.28;;;15.04;56.06
34983;BME280;21187;50.976;13.720;2023-04-29T13:16:15;98120.38;;;14.96;56.56
34983;BME280;21187;50.976;13.720;2023-04-29T13:21:17;98115.25;;;14.84;56.44
34983;BME280;21187;50.976;13.720;2023-04-29T13:26:19;98119.03;;;14.68;56.71
34983;BME280;21187;50.976;13.720;2023-04-29T13:31:21;98127.81;;;14.51;56.78
34983;BME280;21187;50.976;13.720;2023-04-29T13:36:23;98135.44;;;14.34;57.13
34983;BME280;21187;50.976;13.720;2023-04-29T13:41:25;98128.31;;;14.19;57.23
34983;BME280;21187;50.976;13.720;2023-04-29T13:46:28;98135.31;;;14.16;57.74
34983;BME280;21187;50.976;13.720;2023-04-29T13:51:32;98137.84;;;13.98;57.77
34983;BME280;21187;50.976;13.720;2023-04-29T13:56:54;98145.19;;;13.94;58.22
34983;BME280;21187;50.976;13.720;2023-04-29T14:02:16;98152.88;;;13.88;58.67
34983;BME280;21187;50.976;13.720;2023-04-29T14:07:21;98166.81;;;13.79;58.77
34983;BME280;21187;50.976;13.720;2023-04-29T14:12:24;98161.59;;;13.67;58.76
34983;BME280;21187;50.976;13.720;2023-04-29T14:17:26;98180.22;;;13.65;59.00
34983;BME280;21187;50.976;13.720;2023-04-29T14:22:28;98178.34;;;13.69;58.97
34983;BME280;21187;50.976;13.720;2023-04-29T14:27:30;98192.44;;;13.78;58.37
34983;BME280;21187;50.976;13.720;2023-04-29T14:32:32;98184.72;;;13.80;58.36
34983;BME280;21187;50.976;13.720;2023-04-29T14:37:34;98185.44;;;13.77;58.35
34983;BME280;21187;50.976;13.720;2023-04-29T14:42:36;98206.47;;;13.80;58.35
34983;BME280;21187;50.976;13.720;2023-04-29T14:47:38;98202.50;;;13.74;58.12
34983;BME280;21187;50.976;13.720;2023-04-29T14:52:41;98207.19;;;13.77;58.25
34983;BME280;21187;50.976;13.720;2023-04-29T14:57:43;98209.56;;;13.79;58.27
34983;BME280;21187;50.976;13.720;2023-04-29T15:02:46;98224.41;;;13.85;58.28
34983;BME280;21187;50.976;13.720;2023-04-29T15:07:48;98223.16;;;13.79;58.36
34983;BME280;21187;50.976;13.720;2023-04-29T15:12:50;98232.19;;;13.87;58.36
34983;BME280;21187;50.976;13.720;2023-04-29T15:17:53;98226.81;;;13.90;58.03
34983;BME280;21187;50.976;13.720;2023-04-29T15:22:55;98229.25;;;13.99;57.88
34983;BME280;21187;50.976;13.720;2023-04-29T15:27:57;98227.03;;;14.08;57.70
34983;BME280;21187;50.976;13.720;2023-04-29T15:32:59;98227.06;;;14.12;57.45
34983;BME280;21187;50.976;13.720;2023-04-29T15:38:01;98237.16;;;14.11;57.86
34983;BME280;21187;50.976;13.720;2023-04-29T15:43:03;98242.66;;;14.15;57.37
34983;BME280;21187;50.976;13.720;2023-04-29T15:48:05;98238.41;;;14.18;57.64
34983;BME280;21187;50.976;13.720;2023-04-29T15:53:07;98244.41;;;14.34;57.17
34983;BME280;21187;50.976;13.720;2023-04-29T15:58:09;98248.78;;;14.42;57.17
34983;BME280;21187;50.976;13.720;2023-04-29T16:03:11;98241.44;;;14.46;56.89
34983;BME280;21187;50.976;13.720;2023-04-29T16:08:13;98257.44;;;14.48;57.23
34983;BME280;21187;50.976;13.720;2023-04-29T16:13:14;98258.28;;;14.56;56.64
34983;BME280;21187;50.976;13.720;2023-04-29T16:18:17;98258.69;;;14.58;56.52
34983;BME280;21187;50.976;13.720;2023-04-29T16:23:19;98267.22;;;14.56;56.86
34983;BME280;21187;50.976;13.720;2023-04-29T16:28:21;98265.28;;;14.57;56.70
34983;BME280;21187;50.976;13.720;2023-04-29T16:33:23;98274.50;;;14.45;57.00
34983;BME280;21187;50.976;13.720;2023-04-29T16:38:25;98274.59;;;14.52;56.62
34983;BME280;21187;50.976;13.720;2023-04-29T16:43:27;98271.81;;;14.48;56.89
34983;BME280;21187;50.976;13.720;2023-04-29T16:48:29;98281.94;;;14.48;56.73
34983;BME280;21187;50.976;13.720;2023-04-29T16:53:31;98283.47;;;14.45;57.05
34983;BME280;21187;50.976;13.720;2023-04-29T16:58:32;98287.78;;;14.50;56.72
34983;BME280;21187;50.976;13.720;2023-04-29T17:03:35;98296.78;;;14.54;56.36
34983;BME280;21187;50.976;13.720;2023-04-29T17:08:36;98304.97;;;14.54;56.66
34983;BME280;21187;50.976;13.720;2023-04-29T17:13:38;98310.78;;;14.53;56.31
34983;BME280;21187;50.976;13.720;2023-04-29T17:18:40;98319.28;;;14.47;56.39
34983;BME280;21187;50.976;13.720;2023-04-29T17:23:42;98324.72;;;14.44;56.51
34983;BME280;21187;50.976;13.720;2023-04-29T17:28:44;98330.19;;;14.47;56.43
34983;BME280;21187;50.976;13.720;2023-04-29T17:33:46;98343.03;;;14.47;56.86
34983;BME280;21187;50.976;13.720;2023-04-29T17:39:06;98337.09;;;14.38;56.84
34983;BME280;21187;50.976;13.720;2023-04-29T17:44:12;98342.50;;;14.34;57.03
34983;BME280;21187;50.976;13.720;2023-04-29T17:49:14;98360.38;;;14.31;57.07
34983;BME280;21187;50.976;13.720;2023-04-29T17:54:16;98356.34;;;14.22;57.54
34983;BME280;21187;50.976;13.720;2023-04-29T17:59:18;98367.25;;;14.22;57.59
34983;BME280;21187;50.976;13.720;2023-04-29T18:04:20;98374.59;;;14.18;57.61
34983;BME280;21187;50.976;13.720;2023-04-29T18:09:22;98370.31;;;14.17;57.42
34983;BME280;21187;50.976;13.720;2023-04-29T18:14:24;98387.47;;;14.21;57.42
34983;BME280;21187;50.976;13.720;2023-04-29T18:19:28;98396.00;;;14.19;57.45
34983;BME280;21187;50.976;13.720;2023-04-29T18:24:29;98388.94;;;14.14;57.44
34983;BME280;21187;50.976;13.720;2023-04-29T18:29:31;98390.13;;;14.17;57.80
34983;BME280;21187;50.976;13.720;2023-04-29T18:34:33;98396.91;;;14.27;57.62
34983;BME280;21187;50.976;13.720;2023-04-29T18:39:35;98400.03;;;14.29;57.32
34983;BME280;21187;50.976;13.720;2023-04-29T18:44:37;98405.59;;;14.36;57.16
34983;BME280;21187;50.976;13.720;2023-04-29T18:49:39;98413.19;;;14.23;57.28
34983;BME280;21187;50.976;13.720;2023-04-29T18:54:41;98414.63;;;14.13;57.63
34983;BME280;21187;50.976;13.720;2023-04-29T18:59:43;98426.91;;;14.04;57.76
34983;BME280;21187;50.976;13.720;2023-04-29T19:04:45;98435.53;;;14.09;57.73
34983;BME280;21187;50.976;13.720;2023-04-29T19:09:47;98444.22;;;14.15;57.30
34983;BME280;21187;50.976;13.720;2023-04-29T19:14:49;98447.19;;;14.06;57.92
34983;BME280;21187;50.976;13.720;2023-04-29T19:19:51;98458.81;;;14.03;57.69
34983;BME280;21187;50.976;13.720;2023-04-29T19:24:54;98451.78;;;14.02;57.97
34983;BME280;21187;50.976;13.720;2023-04-29T19:29:56;98459.28;;;14.09;57.95
34983;BME280;21187;50.976;13.720;2023-04-29T19:34:58;98460.50;;;14.11;57.58
34983;BME280;21187;50.976;13.720;2023-04-29T19:39:59;98472.13;;;14.08;57.51
34983;BME280;21187;50.976;13.720;2023-04-29T19:45:01;98466.03;;;13.92;57.93
34983;BME280;21187;50.976;13.720;2023-04-29T19:50:05;98477.34;;;13.94;57.51
34983;BME280;21187;50.976;13.720;2023-04-29T19:55:07;98471.06;;;13.90;58.01
34983;BME280;21187;50.976;13.720;2023-04-29T20:00:10;98478.06;;;13.91;57.81
34983;BME280;21187;50.976;13.720;2023-04-29T20:05:15;98476.50;;;13.90;57.47
34983;BME280;21187;50.976;13.720;2023-04-29T20:10:17;98485.50;;;13.94;57.67
34983;BME280;21187;50.976;13.720;2023-04-29T20:15:19;98489.38;;;13.93;57.49
34983;BME280;21187;50.976;13.720;2023-04-29T20:20:21;98487.50;;;13.97;57.57
34983;BME280;21187;50.976;13.720;2023-04-29T20:25:25;98484.38;;;13.95;57.51
34983;BME280;21187;50.976;13.720;2023-04-29T20:30:27;98488.72;;;14.00;57.11
34983;BME280;21187;50.976;13.720;2023-04-29T20:35:29;98493.09;;;14.08;57.08
34983;BME280;21187;50.976;13.720;2023-04-29T20:40:31;98490.75;;;14.06;57.10
34983;BME280;21187;50.976;13.720;2023-04-29T20:45:38;98486.16;;;14.10;57.05
34983;BME280;21187;50.976;13.720;2023-04-29T20:50:41;98491.50;;;14.03;57.00
34983;BME280;21187;50.976;13.720;2023-04-29T20:55:43;98496.94;;;14.03;56.74
34983;BME280;21187;50.976;13.720;2023-04-29T21:00:45;98492.34;;;14.07;56.54
34983;BME280;21187;50.976;13.720;2023-04-29T21:05:52;98486.75;;;14.00;56.71
34983;BME280;21187;50.976;13.720;2023-04-29T21:10:55;98492.63;;;14.02;56.86
34983;BME280;21187;50.976;13.720;2023-04-29T21:15:57;98494.22;;;14.03;56.54
34983;BME280;21187;50.976;13.720;2023-04-29T21:20:59;98501.13;;;13.97;56.68
34983;BME280;21187;50.976;13.720;2023-04-29T21:26:01;98509.19;;;13.90;57.04
34983;BME280;21187;50.976;13.720;2023-04-29T21:31:03;98504.25;;;13.76;57.13
34983;BME280;21187;50.976;13.720;2023-04-29T21:36:05;98505.22;;;13.64;57.13
34983;BME280;21187;50.976;13.720;2023-04-29T21:41:12;98503.47;;;13.75;56.84
34983;BME280;21187;50.976;13.720;2023-04-29T21:46:18;98506.22;;;13.75;57.03
34983;BME280;21187;50.976;13.720;2023-04-29T21:51:20;98504.75;;;13.81;56.54
34983;BME280;21187;50.976;13.720;2023-04-29T21:56:23;98515.22;;;13.79;56.39
34983;BME280;21187;50.976;13.720;2023-04-29T22:01:26;98505.91;;;13.80;56.45
34983;BME280;21187;50.976;13.720;2023-04-29T22:07:01;98523.09;;;13.85;56.16
34983;BME280;21187;50.976;13.720;2023-04-29T22:12:02;98527.25;;;13.78;56.32
34983;BME280;21187;50.976;13.720;2023-04-29T22:17:04;98532.31;;;13.80;56.10
34983;BME280;21187;50.976;13.720;2023-04-29T22:22:06;98527.53;;;13.73;56.20
34983;BME280;21187;50.976;13.720;2023-04-29T22:27:08;98527.72;;;13.61;56.58
34983;BME280;21187;50.976;13.720;2023-04-29T22:32:10;98538.06;;;13.52;56.96
34983;BME280;21187;50.976;13.720;2023-04-29T22:37:12;98530.25;;;13.50;56.79
34983;BME280;21187;50.976;13.720;2023-04-29T22:42:14;98542.66;;;13.47;56.65
34983;BME280;21187;50.976;13.720;2023-04-29T22:47:16;98538.47;;;13.54;56.43
34983;BME280;21187;50.976;13.720;2023-04-29T22:52:18;98540.22;;;13.42;56.70
34983;BME280;21187;50.976;13.720;2023-04-29T22:57:19;98537.91;;;13.44;56.63
34983;BME280;21187;50.976;13.720;2023-04-29T23:02:23;98532.47;;;13.44;56.54
34983;BME280;21187;50.976;13.720;2023-04-29T23:07:30;98543.06;;;13.50;56.44
34983;BME280;21187;50.976;13.720;2023-04-29T23:12:32;98548.78;;;13.44;56.43
34983;BME280;21187;50.976;13.720;2023-04-29T23:17:34;98547.94;;;13.40;56.70
34983;BME280;21187;50.976;13.720;2023-04-29T23:22:40;98550.66;;;13.40;56.46
34983;BME280;21187;50.976;13.720;2023-04-29T23:27:42;98549.44;;;13.38;56.66
34983;BME280;21187;50.976;13.720;2023-04-29T23:32:44;98554.50;;;13.39;56.82
34983;BME280;21187;50.976;13.720;2023-04-29T23:37:46;98555.69;;;13.38;56.56
34983;BME280;21187;50.976;13.720;2023-04-29T23:42:48;98552.97;;;13.38;56.82
34983;BME280;21187;50.976;13.720;2023-04-29T23:47:50;98551.91;;;13.27;56.72
34983;BME280;21187;50.976;13.720;2023-04-29T23:52:52;98554.56;;;13.23;57.13
34983;BME280;21187;50.976;13.720;2023-04-29T23:57:53;98556.78;;;13.18;57.06
